createdAt,value
2023-02-26T00:01:40.997Z,4.80
2023-02-26T00:04:10.150Z,5.43
2023-02-26T00:06:53.334Z,4.33
2023-02-26T00:09:23.267Z,4.13
2023-02-26T00:11:51.755Z,3.80
2023-02-26T00:14:20.408Z,3.70
2023-02-26T00:16:59.433Z,4.57
2023-02-26T00:19:27.762Z,4.00
2023-02-26T00:21:56.429Z,3.50
2023-02-26T00:24:24.489Z,3.43
2023-02-26T00:26:52.500Z,3.67
2023-02-26T00:29:21.228Z,3.87
2023-02-26T00:31:51.544Z,3.50
2023-02-26T00:34:20.686Z,3.37
2023-02-26T00:36:52.715Z,3.03
2023-02-26T00:39:34.946Z,3.23
2023-02-26T00:42:03.784Z,3.40
2023-02-26T00:44:32.638Z,3.43
2023-02-26T00:47:07.174Z,4.17
2023-02-26T00:49:46.494Z,3.50
2023-02-26T00:52:19.214Z,3.73
2023-02-26T00:54:47.248Z,3.50
2023-02-26T00:57:16.147Z,3.80
2023-02-26T00:59:44.747Z,3.03
2023-02-26T01:02:14.204Z,3.53
2023-02-26T01:04:43.541Z,4.77
2023-02-26T01:07:12.079Z,3.90
2023-02-26T01:09:41.342Z,3.50
2023-02-26T01:12:13.038Z,3.20
2023-02-26T01:14:42.714Z,3.40
2023-02-26T01:17:21.155Z,3.40
2023-02-26T01:19:51.560Z,3.60
2023-02-26T01:22:22.470Z,3.27
2023-02-26T01:24:55.452Z,3.23
2023-02-26T01:27:24.591Z,3.10
2023-02-26T01:29:53.279Z,3.63
2023-02-26T01:32:25.587Z,3.37
2023-02-26T01:34:59.789Z,2.77
2023-02-26T01:37:32.868Z,3.60
2023-02-26T01:40:28.383Z,3.13
2023-02-26T01:42:59.841Z,3.07
2023-02-26T01:45:32.801Z,3.23
2023-02-26T01:48:06.936Z,3.07
2023-02-26T01:50:37.009Z,2.60
2023-02-26T01:53:18.825Z,3.00
2023-02-26T01:55:50.457Z,3.30
2023-02-26T01:58:19.778Z,3.10
2023-02-26T02:00:47.924Z,3.27
2023-02-26T02:03:17.625Z,2.90
2023-02-26T02:05:49.045Z,3.33
2023-02-26T02:08:17.649Z,2.77
2023-02-26T02:10:48.850Z,3.47
2023-02-26T02:13:32.163Z,3.73
2023-02-26T02:16:08.606Z,3.50
2023-02-26T02:18:47.038Z,3.47
2023-02-26T02:21:30.419Z,3.33
2023-02-26T02:24:01.658Z,3.63
2023-02-26T02:26:51.709Z,3.67
2023-02-26T02:29:34.381Z,3.53
2023-02-26T02:32:08.758Z,3.57
2023-02-26T02:34:40.422Z,3.43
2023-02-26T02:37:14.786Z,3.50
2023-02-26T02:39:45.738Z,3.20
2023-02-26T02:42:29.957Z,3.33
2023-02-26T02:45:00.336Z,3.30
2023-02-26T02:47:32.719Z,3.57
2023-02-26T02:50:06.985Z,3.73
2023-02-26T02:52:39.191Z,3.53
2023-02-26T02:55:10.799Z,3.30
2023-02-26T02:57:41.186Z,3.60
2023-02-26T03:00:12.198Z,3.73
2023-02-26T03:02:47.875Z,3.33
2023-02-26T03:05:16.963Z,4.10
2023-02-26T03:07:50.874Z,4.00
2023-02-26T03:10:19.612Z,3.67
2023-02-26T03:12:48.004Z,3.90
2023-02-26T03:15:18.155Z,3.83
2023-02-26T03:17:54.941Z,3.23
2023-02-26T03:20:26.848Z,3.53
2023-02-26T03:23:06.216Z,3.27
2023-02-26T03:25:41.769Z,3.50
2023-02-26T03:28:26.507Z,3.70
2023-02-26T03:30:59.499Z,4.97
2023-02-26T03:33:33.250Z,4.17
2023-02-26T03:36:08.007Z,3.60
2023-02-26T03:38:43.814Z,3.10
2023-02-26T03:41:14.245Z,3.77
2023-02-26T03:43:46.035Z,3.20
2023-02-26T03:46:18.299Z,3.90
2023-02-26T03:48:49.730Z,3.10
2023-02-26T03:51:18.872Z,3.77
2023-02-26T03:54:21.903Z,3.70
2023-02-26T03:56:59.930Z,3.30
2023-02-26T03:59:46.605Z,3.10
2023-02-26T04:02:29.343Z,3.47
2023-02-26T04:05:09.848Z,3.67
2023-02-26T04:07:38.266Z,3.13
2023-02-26T04:10:08.236Z,3.50
2023-02-26T04:12:37.675Z,3.10
2023-02-26T04:15:08.964Z,3.30
2023-02-26T04:17:37.473Z,3.40
2023-02-26T04:20:10.094Z,3.63
2023-02-26T04:22:38.342Z,3.60
2023-02-26T04:25:07.447Z,3.57
2023-02-26T04:27:36.802Z,3.70
2023-02-26T04:30:05.659Z,3.53
2023-02-26T04:32:34.369Z,4.00
2023-02-26T04:35:02.625Z,3.13
2023-02-26T04:37:33.496Z,3.27
2023-02-26T04:40:02.543Z,4.93
2023-02-26T04:42:31.551Z,3.83
2023-02-26T04:44:59.813Z,3.43
2023-02-26T04:47:28.922Z,3.93
2023-02-26T04:49:57.046Z,3.60
2023-02-26T04:52:27.748Z,3.17
2023-02-26T04:54:57.193Z,3.20
2023-02-26T04:57:25.299Z,3.33
2023-02-26T04:59:53.341Z,3.50
2023-02-26T05:02:24.241Z,3.13
2023-02-26T05:04:53.797Z,3.50
2023-02-26T05:07:22.898Z,3.87
2023-02-26T05:09:51.108Z,3.83
2023-02-26T05:12:20.530Z,3.83
2023-02-26T05:14:48.702Z,3.57
2023-02-26T05:17:16.780Z,3.30
2023-02-26T05:19:44.888Z,3.43
2023-02-26T05:22:13.944Z,3.40
2023-02-26T05:24:42.318Z,3.30
2023-02-26T05:27:11.541Z,3.30
2023-02-26T05:29:46.669Z,3.00
2023-02-26T05:32:17.933Z,2.97
2023-02-26T05:34:45.949Z,3.10
2023-02-26T05:37:13.937Z,2.67
2023-02-26T05:39:42.180Z,3.40
2023-02-26T05:42:10.621Z,3.37
2023-02-26T05:44:38.796Z,2.93
2023-02-26T05:47:08.328Z,3.20
2023-02-26T05:49:37.139Z,3.27
2023-02-26T05:52:05.562Z,2.80
2023-02-26T05:54:33.604Z,3.50
2023-02-26T05:57:01.905Z,2.53
2023-02-26T05:59:30.080Z,2.97
2023-02-26T06:01:58.463Z,2.70
2023-02-26T06:04:27.901Z,3.17
2023-02-26T06:06:56.068Z,2.97
2023-02-26T06:09:24.134Z,2.60
2023-02-26T06:11:52.348Z,3.10
2023-02-26T06:14:20.563Z,2.50
2023-02-26T06:16:48.628Z,3.00
2023-02-26T06:19:16.786Z,3.00
2023-02-26T06:21:47.078Z,3.00
2023-02-26T06:24:15.301Z,3.13
2023-02-26T06:26:43.397Z,3.10
2023-02-26T06:29:11.990Z,3.00
2023-02-26T06:31:39.992Z,3.47
2023-02-26T06:34:08.212Z,2.70
2023-02-26T06:36:36.312Z,2.93
2023-02-26T06:39:05.818Z,2.73
2023-02-26T06:41:34.164Z,2.80
2023-02-26T06:44:02.427Z,2.67
2023-02-26T06:46:30.644Z,3.47
2023-02-26T06:48:58.756Z,2.83
2023-02-26T06:51:27.008Z,2.70
2023-02-26T06:53:54.981Z,2.83
2023-02-26T06:56:24.527Z,3.20
2023-02-26T06:58:52.713Z,3.00
2023-02-26T07:01:21.180Z,2.97
2023-02-26T07:03:49.303Z,3.67
2023-02-26T07:06:27.452Z,2.67
2023-02-26T07:08:57.078Z,3.50
2023-02-26T07:11:26.652Z,3.27
2023-02-26T07:13:55.137Z,3.30
2023-02-26T07:16:23.464Z,3.50
2023-02-26T07:18:51.804Z,3.10
2023-02-26T07:21:19.920Z,3.43
2023-02-26T07:23:47.976Z,3.07
2023-02-26T07:26:17.560Z,3.50
2023-02-26T07:28:47.360Z,3.30
2023-02-26T07:31:16.685Z,3.60
2023-02-26T07:33:45.095Z,3.07
2023-02-26T07:36:13.209Z,3.37
2023-02-26T07:38:41.211Z,3.67
2023-02-26T07:41:10.369Z,3.43
2023-02-26T07:43:38.331Z,3.20
2023-02-26T07:46:07.853Z,4.03
2023-02-26T07:48:37.109Z,3.83
2023-02-26T07:51:07.352Z,3.60
2023-02-26T07:53:35.886Z,4.63
2023-02-26T07:56:04.067Z,4.10
2023-02-26T07:58:32.274Z,4.57
2023-02-26T08:01:00.506Z,4.60
2023-02-26T08:03:30.046Z,4.60
2023-02-26T08:06:00.330Z,4.00
2023-02-26T08:08:28.502Z,3.20
2023-02-26T08:10:57.050Z,3.00
2023-02-26T08:13:26.001Z,3.10
2023-02-26T08:15:54.244Z,3.63
2023-02-26T08:18:22.826Z,4.30
2023-02-26T08:20:53.339Z,3.60
2023-02-26T08:23:21.531Z,3.20
2023-02-26T08:25:50.460Z,3.23
2023-02-26T08:28:18.490Z,3.33
2023-02-26T08:30:46.690Z,3.60
2023-02-26T08:33:14.933Z,3.23
2023-02-26T08:35:42.993Z,3.40
2023-02-26T08:38:12.607Z,2.83
2023-02-26T08:40:40.621Z,2.60
2023-02-26T08:43:09.397Z,2.93
2023-02-26T08:45:37.351Z,3.40
2023-02-26T08:48:05.626Z,3.23
2023-02-26T08:50:33.618Z,3.03
2023-02-26T08:53:01.705Z,3.00
2023-02-26T08:55:31.301Z,3.07
2023-02-26T08:57:59.395Z,3.00
2023-02-26T09:00:27.370Z,3.80
2023-02-26T09:02:55.450Z,3.40
2023-02-26T09:05:23.669Z,4.27
2023-02-26T09:07:51.701Z,3.73
2023-02-26T09:10:19.822Z,3.90
2023-02-26T09:12:49.328Z,3.57
2023-02-26T09:15:18.043Z,3.03
2023-02-26T09:17:47.927Z,3.03
2023-02-26T09:20:16.452Z,2.90
2023-02-26T09:22:44.868Z,2.60
2023-02-26T09:25:13.250Z,3.17
2023-02-26T09:27:41.323Z,3.33
2023-02-26T09:30:12.206Z,2.53
2023-02-26T09:32:40.550Z,2.50
2023-02-26T09:35:09.801Z,2.20
2023-02-26T09:37:38.222Z,2.70
2023-02-26T09:40:08.074Z,2.03
2023-02-26T09:42:49.260Z,2.43
2023-02-26T09:45:26.820Z,2.30
2023-02-26T09:47:55.494Z,2.47
2023-02-26T09:50:26.191Z,2.40
2023-02-26T09:52:56.794Z,2.30
2023-02-26T09:55:29.717Z,2.50
2023-02-26T09:58:00.861Z,2.30
2023-02-26T10:00:35.554Z,2.37
2023-02-26T10:03:12.404Z,2.10
2023-02-26T10:05:44.030Z,2.43
2023-02-26T10:08:16.348Z,2.10
2023-02-26T10:10:51.364Z,2.00
2023-02-26T10:13:23.884Z,2.20
2023-02-26T10:15:54.607Z,2.10
2023-02-26T10:18:25.858Z,2.07
2023-02-26T10:20:57.039Z,2.13
2023-02-26T10:23:30.113Z,2.00
2023-02-26T10:26:04.984Z,2.00
2023-02-26T10:28:43.972Z,1.50
2023-02-26T10:31:22.122Z,1.77
2023-02-26T10:33:55.067Z,1.60
2023-02-26T10:36:26.403Z,1.60
2023-02-26T10:39:01.365Z,2.10
2023-02-26T10:41:32.298Z,1.60
2023-02-26T10:44:05.047Z,1.57
2023-02-26T10:46:42.687Z,1.40
2023-02-26T10:49:26.967Z,1.80
2023-02-26T10:51:55.777Z,1.50
2023-02-26T10:54:28.307Z,1.40
2023-02-26T10:56:57.080Z,1.87
2023-02-26T10:59:25.337Z,1.80
2023-02-26T11:01:56.195Z,1.40
2023-02-26T11:04:27.642Z,1.83
2023-02-26T11:06:58.046Z,1.40
2023-02-26T11:09:27.331Z,1.30
2023-02-26T11:11:58.122Z,1.40
2023-02-26T11:14:28.735Z,1.57
2023-02-26T11:17:03.509Z,1.53
2023-02-26T11:19:34.511Z,1.50
2023-02-26T11:22:04.244Z,1.70
2023-02-26T11:24:35.890Z,1.70
2023-02-26T11:27:10.955Z,1.60
2023-02-26T11:29:41.105Z,1.70
2023-02-26T11:32:18.971Z,1.50
2023-02-26T11:34:49.410Z,1.37
2023-02-26T11:37:19.733Z,1.57
2023-02-26T11:39:48.401Z,1.50
2023-02-26T11:42:18.386Z,1.40
2023-02-26T11:44:48.717Z,1.60
2023-02-26T11:47:24.796Z,1.47
2023-02-26T11:49:54.715Z,1.50
2023-02-26T11:52:29.620Z,2.00
2023-02-26T11:55:02.287Z,1.37
2023-02-26T11:57:34.466Z,1.50
2023-02-26T12:00:06.544Z,1.40
2023-02-26T12:02:44.494Z,1.40
2023-02-26T12:05:16.962Z,1.17
2023-02-26T12:07:46.953Z,1.40
2023-02-26T12:10:17.486Z,1.53
2023-02-26T12:12:58.469Z,1.60
2023-02-26T12:15:33.955Z,1.20
2023-02-26T12:18:24.887Z,1.43
2023-02-26T12:21:00.221Z,1.40
2023-02-26T12:23:52.773Z,1.40
2023-02-26T12:26:28.682Z,1.43
2023-02-26T12:29:36.644Z,1.60
2023-02-26T12:32:16.273Z,1.20
2023-02-26T12:35:22.895Z,1.30
2023-02-26T12:37:57.855Z,1.30
2023-02-26T12:40:49.131Z,1.40
2023-02-26T12:43:24.597Z,1.20
2023-02-26T12:45:56.018Z,1.40
2023-02-26T12:48:51.388Z,1.27
2023-02-26T12:51:30.285Z,1.37
2023-02-26T12:54:13.082Z,1.43
2023-02-26T12:57:15.872Z,1.80
2023-02-26T13:00:02.125Z,1.70
2023-02-26T13:03:03.788Z,1.63
2023-02-26T13:05:46.916Z,1.50
2023-02-26T13:08:22.551Z,1.10
2023-02-26T13:10:58.511Z,1.30
2023-02-26T13:13:49.517Z,1.33
2023-02-26T13:16:25.796Z,1.50
2023-02-26T13:19:00.182Z,1.00
2023-02-26T13:21:31.257Z,1.40
2023-02-26T13:24:05.489Z,1.30
2023-02-26T13:26:35.130Z,1.53
2023-02-26T13:29:05.595Z,1.60
2023-02-26T13:31:36.275Z,1.40
2023-02-26T13:34:09.158Z,1.60
2023-02-26T13:36:37.399Z,1.40
2023-02-26T13:39:21.817Z,1.40
2023-02-26T13:41:57.162Z,1.40
2023-02-26T13:44:35.118Z,1.40
2023-02-26T13:47:18.923Z,1.60
2023-02-26T13:49:55.822Z,1.27
2023-02-26T13:52:25.911Z,1.73
2023-02-26T13:54:56.427Z,1.63
2023-02-26T13:57:37.207Z,1.60
2023-02-26T14:00:13.336Z,1.90
2023-02-26T14:02:55.945Z,1.70
2023-02-26T14:05:56.435Z,1.30
2023-02-26T14:08:44.766Z,1.40
2023-02-26T14:11:48.188Z,1.77
2023-02-26T14:14:31.380Z,1.50
2023-02-26T14:17:29.939Z,1.40
2023-02-26T14:20:30.304Z,1.50
2023-02-26T14:23:34.260Z,1.53
2023-02-26T14:26:06.644Z,1.43
2023-02-26T14:28:46.799Z,1.50
2023-02-26T14:31:22.258Z,1.30
2023-02-26T14:34:10.273Z,1.40
2023-02-26T14:36:46.650Z,1.63
2023-02-26T14:39:25.896Z,1.30
2023-02-26T14:41:58.743Z,1.20
2023-02-26T14:44:30.204Z,1.63
2023-02-26T14:46:58.529Z,1.67
2023-02-26T14:49:31.188Z,1.50
2023-02-26T14:52:12.897Z,1.93
2023-02-26T14:54:51.769Z,1.50
2023-02-26T14:57:27.073Z,1.17
2023-02-26T15:00:10.112Z,1.50
2023-02-26T15:02:49.389Z,1.20
2023-02-26T15:05:42.839Z,1.27
2023-02-26T15:08:22.825Z,1.47
2023-02-26T15:11:26.078Z,1.67
2023-02-26T15:14:08.021Z,1.57
2023-02-26T15:16:46.250Z,1.70
2023-02-26T15:19:35.057Z,1.80
2023-02-26T15:22:13.085Z,1.60
2023-02-26T15:24:41.318Z,1.57
2023-02-26T15:27:14.972Z,1.97
2023-02-26T15:29:43.810Z,1.43
2023-02-26T15:32:19.069Z,1.43
2023-02-26T15:34:48.700Z,1.40
2023-02-26T15:37:22.458Z,1.40
2023-02-26T15:39:50.942Z,1.40
2023-02-26T15:42:19.438Z,1.60
2023-02-26T15:44:56.913Z,1.63
2023-02-26T15:47:28.928Z,1.43
2023-02-26T15:49:58.211Z,1.10
2023-02-26T15:52:27.611Z,1.57
2023-02-26T15:54:58.379Z,1.20
2023-02-26T15:57:27.261Z,1.60
2023-02-26T16:00:01.558Z,1.50
2023-02-26T16:02:32.547Z,1.37
2023-02-26T16:05:02.734Z,1.57
2023-02-26T16:07:30.841Z,1.50
2023-02-26T16:10:06.991Z,1.30
2023-02-26T16:12:38.606Z,1.67
2023-02-26T16:15:12.524Z,1.60
2023-02-26T16:17:45.227Z,1.50
2023-02-26T16:20:16.951Z,1.60
2023-02-26T16:22:50.326Z,1.50
2023-02-26T16:25:24.089Z,1.40
2023-02-26T16:27:58.793Z,1.27
2023-02-26T16:30:35.864Z,1.17
2023-02-26T16:33:07.413Z,1.20
2023-02-26T16:35:41.007Z,1.50
2023-02-26T16:38:14.236Z,1.57
2023-02-26T16:40:44.514Z,1.40
2023-02-26T16:43:42.313Z,1.30
2023-02-26T16:46:12.418Z,1.43
2023-02-26T16:48:45.131Z,1.20
2023-02-26T16:51:16.304Z,1.33
2023-02-26T16:53:46.005Z,1.80
2023-02-26T16:56:16.907Z,1.50
2023-02-26T16:58:45.938Z,1.90
2023-02-26T17:01:16.166Z,1.60
2023-02-26T17:03:49.384Z,1.70
2023-02-26T17:06:19.667Z,1.50
2023-02-26T17:08:51.074Z,1.57
2023-02-26T17:11:26.810Z,1.83
2023-02-26T17:14:10.042Z,1.97
2023-02-26T17:16:38.275Z,2.30
2023-02-26T17:19:09.536Z,1.87
2023-02-26T17:21:43.583Z,1.80
2023-02-26T17:24:17.347Z,1.80
2023-02-26T17:26:45.934Z,2.20
2023-02-26T17:29:19.221Z,1.70
2023-02-26T17:31:47.697Z,1.70
2023-02-26T17:34:17.479Z,1.77
2023-02-26T17:36:45.538Z,1.63
2023-02-26T17:39:14.262Z,1.87
2023-02-26T17:41:44.312Z,1.60
2023-02-26T17:44:12.572Z,1.80
2023-02-26T17:46:41.242Z,1.60
2023-02-26T17:49:11.057Z,1.73
2023-02-26T17:51:40.450Z,1.57
2023-02-26T17:54:08.567Z,1.70
2023-02-26T17:56:37.202Z,1.90
2023-02-26T17:59:07.113Z,2.00
2023-02-26T18:01:35.307Z,1.93
2023-02-26T18:04:03.625Z,1.97
2023-02-26T18:06:34.351Z,2.10
2023-02-26T18:09:05.863Z,1.97
2023-02-26T18:11:34.956Z,2.10
2023-02-26T18:14:03.130Z,1.97
2023-02-26T18:16:33.857Z,1.90
2023-02-26T18:19:02.491Z,2.00
2023-02-26T18:21:31.184Z,1.90
2023-02-26T18:24:01.219Z,2.20
2023-02-26T18:26:34.213Z,1.90
2023-02-26T18:29:02.381Z,2.10
2023-02-26T18:31:34.969Z,2.13
2023-02-26T18:34:04.270Z,1.67
2023-02-26T18:36:39.693Z,1.97
2023-02-26T18:39:09.634Z,2.20
2023-02-26T18:41:40.039Z,2.40
2023-02-26T18:44:08.445Z,2.17
2023-02-26T18:46:40.165Z,2.57
2023-02-26T18:49:17.446Z,2.23
2023-02-26T18:51:45.802Z,2.30
2023-02-26T18:54:14.116Z,2.30
2023-02-26T18:56:43.693Z,2.00
2023-02-26T18:59:11.913Z,2.37
2023-02-26T19:01:40.249Z,2.40
2023-02-26T19:04:08.559Z,2.33
2023-02-26T19:06:40.258Z,2.60
2023-02-26T19:09:09.587Z,2.53
2023-02-26T19:11:38.170Z,2.17
2023-02-26T19:14:17.091Z,2.40
2023-02-26T19:16:46.365Z,2.80
2023-02-26T19:19:16.291Z,3.03
2023-02-26T19:21:45.116Z,3.73
2023-02-26T19:24:14.493Z,3.83
2023-02-26T19:26:43.700Z,4.27
2023-02-26T19:29:16.666Z,3.57
2023-02-26T19:31:45.885Z,3.83
2023-02-26T19:34:14.399Z,3.97
2023-02-26T19:36:48.332Z,3.67
2023-02-26T19:39:18.691Z,3.80
2023-02-26T19:41:49.043Z,3.20
2023-02-26T19:44:20.350Z,3.47
2023-02-26T19:46:48.826Z,3.53
2023-02-26T19:49:17.812Z,3.40
2023-02-26T19:51:46.553Z,3.53
2023-02-26T19:54:17.157Z,3.57
2023-02-26T19:56:46.170Z,3.77
2023-02-26T19:59:14.840Z,3.80
2023-02-26T20:01:46.607Z,4.13
2023-02-26T20:04:15.769Z,4.30
2023-02-26T20:06:44.185Z,4.10
2023-02-26T20:09:12.919Z,4.47
2023-02-26T20:11:41.214Z,4.67
2023-02-26T20:14:09.618Z,4.57
2023-02-26T20:16:38.326Z,5.10
2023-02-26T20:19:07.913Z,5.37
2023-02-26T20:21:37.126Z,4.37
2023-02-26T20:24:09.280Z,4.77
2023-02-26T20:26:37.693Z,4.27
2023-02-26T20:29:08.420Z,3.97
2023-02-26T20:31:36.544Z,4.30
2023-02-26T20:34:05.176Z,4.50
2023-02-26T20:36:35.276Z,4.53
2023-02-26T20:39:03.674Z,4.13
2023-02-26T20:41:31.831Z,4.33
2023-02-26T20:44:00.018Z,4.57
2023-02-26T20:46:29.067Z,4.30
2023-02-26T20:48:57.374Z,4.13
2023-02-26T20:51:26.048Z,4.97
2023-02-26T20:53:57.578Z,5.40
2023-02-26T20:56:26.344Z,5.40
2023-02-26T20:58:54.310Z,5.00
2023-02-26T21:01:22.302Z,5.37
2023-02-26T21:03:50.447Z,4.90
2023-02-26T21:06:18.450Z,4.47
2023-02-26T21:08:46.501Z,4.23
2023-02-26T21:11:16.051Z,5.27
2023-02-26T21:13:45.693Z,5.30
2023-02-26T21:16:14.035Z,5.37
2023-02-26T21:18:42.203Z,4.83
2023-02-26T21:21:10.276Z,5.30
2023-02-26T21:23:38.215Z,5.10
2023-02-26T21:26:07.277Z,6.13
2023-02-26T21:28:37.031Z,5.70
2023-02-26T21:31:05.614Z,5.33
2023-02-26T21:33:33.908Z,5.47
2023-02-26T21:36:01.953Z,4.83
2023-02-26T21:38:30.071Z,5.57
2023-02-26T21:40:58.116Z,4.90
2023-02-26T21:43:26.361Z,5.43
2023-02-26T21:45:55.908Z,5.60
2023-02-26T21:48:24.519Z,6.00
2023-02-26T21:50:53.771Z,5.40
2023-02-26T21:53:21.890Z,5.63
2023-02-26T21:55:50.169Z,6.23
2023-02-26T21:58:18.709Z,5.60
2023-02-26T22:00:48.982Z,5.50
2023-02-26T22:03:20.486Z,6.17
2023-02-26T22:05:53.915Z,5.87
2023-02-26T22:08:22.550Z,6.10
2023-02-26T22:10:51.280Z,5.57
2023-02-26T22:13:19.426Z,5.90
2023-02-26T22:15:48.807Z,6.40
2023-02-26T22:18:18.831Z,6.50
2023-02-26T22:20:48.221Z,6.53
2023-02-26T22:23:16.459Z,5.90
2023-02-26T22:25:44.686Z,6.17
2023-02-26T22:28:12.856Z,6.13
2023-02-26T22:30:41.395Z,6.77
2023-02-26T22:33:10.348Z,6.00
2023-02-26T22:35:40.090Z,6.17
2023-02-26T22:38:09.412Z,6.47
2023-02-26T22:40:40.852Z,6.57
2023-02-26T22:43:09.768Z,5.97
2023-02-26T22:45:37.943Z,6.30
2023-02-26T22:48:06.541Z,7.80
2023-02-26T22:50:35.032Z,7.70
2023-02-26T22:53:06.929Z,6.77
2023-02-26T22:55:35.190Z,6.20
2023-02-26T22:58:03.627Z,7.70
2023-02-26T23:00:31.830Z,7.20
2023-02-26T23:03:00.284Z,6.97
2023-02-26T23:05:28.514Z,6.57
2023-02-26T23:07:56.608Z,7.00
2023-02-26T23:10:26.118Z,6.90
2023-02-26T23:12:54.111Z,7.43
2023-02-26T23:15:22.223Z,7.03
2023-02-26T23:17:50.323Z,6.77
2023-02-26T23:20:18.623Z,7.90
2023-02-26T23:22:46.676Z,7.90
2023-02-26T23:25:14.714Z,7.53
2023-02-26T23:27:44.323Z,6.37
2023-02-26T23:30:13.841Z,6.97
2023-02-26T23:32:41.983Z,8.10
2023-02-26T23:35:10.922Z,6.77
2023-02-26T23:37:39.020Z,7.13
2023-02-26T23:40:08.344Z,6.50
2023-02-26T23:42:36.350Z,6.50
2023-02-26T23:45:06.488Z,6.97
2023-02-26T23:47:34.687Z,6.67
2023-02-26T23:50:02.782Z,6.83
2023-02-26T23:52:31.165Z,7.07
2023-02-26T23:54:59.188Z,6.40
2023-02-26T23:57:27.167Z,5.90
2023-02-26T23:59:55.285Z,6.10
